createdAt,value
2023-11-25T00:00:24.251Z,6.00
2023-11-25T00:01:26.927Z,5.00
2023-11-25T00:02:29.631Z,5.70
2023-11-25T00:03:32.286Z,5.50
2023-11-25T00:04:34.963Z,4.90
2023-11-25T00:05:37.638Z,4.50
2023-11-25T00:06:40.370Z,4.64
2023-11-25T00:07:43.271Z,3.40
2023-11-25T00:08:45.718Z,4.70
2023-11-25T00:09:48.293Z,3.60
2023-11-25T00:10:50.955Z,5.80
2023-11-25T00:11:53.523Z,5.00
2023-11-25T00:12:56.392Z,3.64
2023-11-25T00:13:58.953Z,6.90
2023-11-25T00:15:02.643Z,4.80
2023-11-25T00:17:18.158Z,7.00
2023-11-25T00:18:20.909Z,6.00
2023-11-25T00:19:23.612Z,6.91
2023-11-25T00:20:26.328Z,5.40
2023-11-25T00:21:28.802Z,6.80
2023-11-25T00:22:31.482Z,7.70
2023-11-25T00:23:34.043Z,7.80
2023-11-25T00:24:36.612Z,7.80
2023-11-25T00:25:39.244Z,7.90
2023-11-25T00:26:41.969Z,8.00
2023-11-25T00:27:44.412Z,8.50
2023-11-25T00:28:47.080Z,7.70
2023-11-25T00:29:49.643Z,8.60
2023-11-25T00:30:52.622Z,9.36
2023-11-25T00:31:55.293Z,6.80
2023-11-25T00:32:57.898Z,9.30
2023-11-25T00:34:00.579Z,6.50
2023-11-25T00:35:04.794Z,11.30
2023-11-25T00:36:08.229Z,7.50
2023-11-25T00:37:10.812Z,8.80
2023-11-25T00:38:13.357Z,10.10
2023-11-25T00:39:15.922Z,10.00
2023-11-25T00:40:18.839Z,9.00
2023-11-25T00:41:21.482Z,10.40
2023-11-25T00:42:23.954Z,8.70
2023-11-25T00:43:26.377Z,8.40
2023-11-25T00:44:28.867Z,5.30
2023-11-25T00:45:31.488Z,8.30
2023-11-25T00:46:35.030Z,6.70
2023-11-25T00:47:38.032Z,6.30
2023-11-25T00:48:40.661Z,7.00
2023-11-25T00:49:43.273Z,6.60
2023-11-25T00:50:46.005Z,6.60
2023-11-25T00:51:48.583Z,6.80
2023-11-25T00:52:52.485Z,7.00
2023-11-25T00:53:54.948Z,5.20
2023-11-25T00:54:57.526Z,5.80
2023-11-25T00:56:00.676Z,4.10
2023-11-25T00:57:03.247Z,3.80
2023-11-25T00:58:05.783Z,6.50
2023-11-25T00:59:08.375Z,7.30
2023-11-25T01:00:12.602Z,4.30
2023-11-25T01:01:15.679Z,6.70
2023-11-25T01:02:18.322Z,5.40
2023-11-25T01:03:21.471Z,6.00
2023-11-25T01:04:24.204Z,4.40
2023-11-25T01:05:26.751Z,6.20
2023-11-25T01:06:29.418Z,5.30
2023-11-25T01:07:32.076Z,5.70
2023-11-25T01:08:34.518Z,4.40
2023-11-25T01:09:37.168Z,3.20
2023-11-25T01:10:39.785Z,3.80
2023-11-25T01:11:42.980Z,5.50
2023-11-25T01:12:45.537Z,2.30
2023-11-25T01:13:48.109Z,6.30
2023-11-25T01:14:50.679Z,7.40
2023-11-25T01:15:53.580Z,6.18
2023-11-25T01:16:56.361Z,4.70
2023-11-25T01:17:59.105Z,7.27
2023-11-25T01:19:01.664Z,7.30
2023-11-25T01:20:05.686Z,9.10
2023-11-25T01:21:08.334Z,8.20
2023-11-25T01:22:11.063Z,8.80
2023-11-25T01:23:13.777Z,7.82
2023-11-25T01:24:16.338Z,7.40
2023-11-25T01:25:19.037Z,7.60
2023-11-25T01:26:21.988Z,7.27
2023-11-25T01:27:24.789Z,7.10
2023-11-25T01:28:27.444Z,9.00
2023-11-25T01:29:30.102Z,7.60
2023-11-25T01:30:32.766Z,7.30
2023-11-25T01:31:35.376Z,7.40
2023-11-25T01:32:38.020Z,7.80
2023-11-25T01:33:40.835Z,9.60
2023-11-25T01:34:43.467Z,9.50
2023-11-25T01:35:48.301Z,7.80
2023-11-25T01:36:50.799Z,6.80
2023-11-25T01:37:53.195Z,6.00
2023-11-25T01:38:55.769Z,7.50
2023-11-25T01:39:58.325Z,8.80
2023-11-25T01:41:03.189Z,2.90
2023-11-25T01:42:05.611Z,9.20
2023-11-25T01:43:08.100Z,7.30
2023-11-25T01:44:10.709Z,5.20
2023-11-25T01:45:13.176Z,6.90
2023-11-25T01:46:19.959Z,7.90
2023-11-25T01:47:22.924Z,7.20
2023-11-25T01:48:29.310Z,6.00
2023-11-25T01:49:32.073Z,8.40
2023-11-25T01:50:34.851Z,7.27
2023-11-25T01:51:38.842Z,6.90
2023-11-25T01:52:42.061Z,6.60
2023-11-25T01:53:44.603Z,6.50
2023-11-25T01:54:47.168Z,8.10
2023-11-25T01:55:52.106Z,7.00
2023-11-25T01:56:57.945Z,6.40
2023-11-25T01:58:00.810Z,7.10
2023-11-25T01:59:04.604Z,9.55
2023-11-25T02:00:08.700Z,7.90
2023-11-25T02:01:13.274Z,10.50
2023-11-25T02:02:16.394Z,10.18
2023-11-25T02:03:19.507Z,9.20
2023-11-25T02:04:22.114Z,8.00
2023-11-25T02:05:24.599Z,8.40
2023-11-25T02:06:27.494Z,7.64
2023-11-25T02:07:30.232Z,8.10
2023-11-25T02:08:32.831Z,7.50
2023-11-25T02:09:35.398Z,10.60
2023-11-25T02:10:38.224Z,9.70
2023-11-25T02:13:07.230Z,9.90
2023-11-25T02:14:09.673Z,7.80
2023-11-25T02:15:13.274Z,7.20
2023-11-25T02:16:16.372Z,9.00
2023-11-25T02:17:19.108Z,8.80
2023-11-25T02:18:21.744Z,9.20
2023-11-25T02:19:24.531Z,9.70
2023-11-25T02:20:38.033Z,10.73
2023-11-25T02:21:40.911Z,9.90
2023-11-25T02:23:59.251Z,12.00
2023-11-25T02:25:01.799Z,9.90
2023-11-25T02:26:05.454Z,12.90
2023-11-25T02:27:08.335Z,10.90
2023-11-25T02:28:10.982Z,9.00
2023-11-25T02:29:13.519Z,8.70
2023-11-25T02:30:16.146Z,7.70
2023-11-25T02:31:18.708Z,8.30
2023-11-25T02:32:21.374Z,8.70
2023-11-25T02:33:24.200Z,10.55
2023-11-25T02:34:27.222Z,4.70
2023-11-25T02:35:29.956Z,7.80
2023-11-25T02:36:33.547Z,7.80
2023-11-25T02:37:36.133Z,9.00
2023-11-25T02:38:38.742Z,8.30
2023-11-25T02:39:41.238Z,9.50
2023-11-25T02:40:45.698Z,8.40
2023-11-25T02:41:49.060Z,7.00
2023-11-25T02:42:51.597Z,7.00
2023-11-25T02:43:54.187Z,6.60
2023-11-25T02:44:57.569Z,5.70
2023-11-25T02:46:00.055Z,5.90
2023-11-25T02:47:02.748Z,7.40
2023-11-25T02:48:06.374Z,4.90
2023-11-25T02:49:09.241Z,6.20
2023-11-25T02:50:12.429Z,6.30
2023-11-25T02:51:15.013Z,5.60
2023-11-25T02:52:17.593Z,5.70
2023-11-25T02:53:20.114Z,5.20
2023-11-25T02:54:23.626Z,5.40
2023-11-25T02:55:26.234Z,5.10
2023-11-25T02:56:28.968Z,6.50
2023-11-25T02:57:31.438Z,4.90
2023-11-25T02:58:33.989Z,7.80
2023-11-25T02:59:36.578Z,7.00
2023-11-25T03:00:39.233Z,4.90
2023-11-25T03:01:41.815Z,7.50
2023-11-25T03:02:44.339Z,6.20
2023-11-25T03:03:46.863Z,6.30
2023-11-25T03:04:49.643Z,8.50
2023-11-25T03:05:52.070Z,10.10
2023-11-25T03:06:54.950Z,9.50
2023-11-25T03:07:58.109Z,10.50
2023-11-25T03:09:00.804Z,8.00
2023-11-25T03:10:05.844Z,8.30
2023-11-25T03:11:08.390Z,5.30
2023-11-25T03:12:11.778Z,4.00
2023-11-25T03:13:14.842Z,8.90
2023-11-25T03:14:17.957Z,7.40
2023-11-25T03:15:20.671Z,8.70
2023-11-25T03:16:23.924Z,7.91
2023-11-25T03:17:26.638Z,7.60
2023-11-25T03:18:29.242Z,7.20
2023-11-25T03:19:31.845Z,8.00
2023-11-25T03:20:35.591Z,8.30
2023-11-25T03:21:38.111Z,8.40
2023-11-25T03:22:40.611Z,4.40
2023-11-25T03:23:43.182Z,8.60
2023-11-25T03:24:45.751Z,6.80
2023-11-25T03:25:48.325Z,5.20
2023-11-25T03:26:51.284Z,7.80
2023-11-25T03:27:54.481Z,6.50
2023-11-25T03:28:57.010Z,8.10
2023-11-25T03:29:59.513Z,8.00
2023-11-25T03:31:05.129Z,8.50
2023-11-25T03:32:07.797Z,8.50
2023-11-25T03:33:10.818Z,8.36
2023-11-25T03:34:13.666Z,8.10
2023-11-25T03:35:16.953Z,7.70
2023-11-25T03:36:19.910Z,7.60
2023-11-25T03:37:22.622Z,6.10
2023-11-25T03:38:25.943Z,7.40
2023-11-25T03:39:28.456Z,7.60
2023-11-25T03:40:31.260Z,4.40
2023-11-25T03:41:33.911Z,7.40
2023-11-25T03:42:36.457Z,7.20
2023-11-25T03:43:39.066Z,7.80
2023-11-25T03:44:41.696Z,8.10
2023-11-25T03:45:44.273Z,7.30
2023-11-25T03:46:47.186Z,7.64
2023-11-25T03:47:50.352Z,6.20
2023-11-25T03:48:53.187Z,7.55
2023-11-25T03:49:56.707Z,6.50
2023-11-25T03:50:59.342Z,6.00
2023-11-25T03:52:01.981Z,6.40
2023-11-25T03:53:04.506Z,6.30
2023-11-25T03:54:07.158Z,6.30
2023-11-25T03:55:09.810Z,8.20
2023-11-25T03:56:13.369Z,6.70
2023-11-25T03:57:15.980Z,6.80
2023-11-25T03:58:18.576Z,8.40
2023-11-25T03:59:21.108Z,9.90
2023-11-25T04:00:23.782Z,10.70
2023-11-25T04:01:26.581Z,8.90
2023-11-25T04:02:29.319Z,6.00
2023-11-25T04:03:32.015Z,8.60
2023-11-25T04:04:34.635Z,8.00
2023-11-25T04:05:37.337Z,8.80
2023-11-25T04:06:40.111Z,3.50
2023-11-25T04:07:42.888Z,8.00
2023-11-25T04:08:45.444Z,8.00
2023-11-25T04:09:48.417Z,10.64
2023-11-25T04:10:51.211Z,8.00
2023-11-25T04:11:53.727Z,9.60
2023-11-25T04:12:56.120Z,8.00
2023-11-25T04:13:58.696Z,8.10
2023-11-25T04:15:01.117Z,8.30
2023-11-25T04:16:05.154Z,9.60
2023-11-25T04:17:09.609Z,9.50
2023-11-25T04:18:12.459Z,2.80
2023-11-25T04:19:15.271Z,8.55
2023-11-25T04:20:17.943Z,13.20
2023-11-25T04:21:20.478Z,10.20
2023-11-25T04:22:24.301Z,13.30
2023-11-25T04:23:27.423Z,12.70
2023-11-25T04:24:31.990Z,12.30
2023-11-25T04:25:35.075Z,11.70
2023-11-25T04:26:38.601Z,10.50
2023-11-25T04:27:42.485Z,4.40
2023-11-25T04:28:45.195Z,8.20
2023-11-25T04:29:47.733Z,8.70
2023-11-25T04:30:50.412Z,10.20
2023-11-25T04:31:53.085Z,9.00
2023-11-25T04:32:55.777Z,9.70
2023-11-25T04:33:58.427Z,8.30
2023-11-25T04:35:00.994Z,8.60
2023-11-25T04:36:04.310Z,9.40
2023-11-25T04:37:06.946Z,10.30
2023-11-25T04:38:09.622Z,10.00
2023-11-25T04:39:12.385Z,10.73
2023-11-25T04:40:15.862Z,11.90
2023-11-25T04:41:18.618Z,10.36
2023-11-25T04:42:21.204Z,14.30
2023-11-25T04:43:23.723Z,13.60
2023-11-25T04:44:26.344Z,13.80
2023-11-25T04:45:28.905Z,12.90
2023-11-25T04:46:31.554Z,10.20
2023-11-25T04:47:34.132Z,9.80
2023-11-25T04:48:37.132Z,9.73
2023-11-25T04:49:40.529Z,9.70
2023-11-25T04:50:45.002Z,8.80
2023-11-25T04:51:47.596Z,9.70
2023-11-25T04:52:50.075Z,9.70
2023-11-25T04:53:52.619Z,11.60
2023-11-25T04:54:55.292Z,12.40
2023-11-25T04:55:57.849Z,14.70
2023-11-25T04:57:00.527Z,20.40
2023-11-25T04:58:03.099Z,21.50
2023-11-25T04:59:05.621Z,24.70
2023-11-25T05:00:09.347Z,26.40
2023-11-25T05:01:12.322Z,24.20
2023-11-25T05:02:15.267Z,22.00
2023-11-25T05:03:18.027Z,22.91
2023-11-25T05:04:20.648Z,20.80
2023-11-25T05:05:23.242Z,19.60
2023-11-25T05:06:25.883Z,14.80
2023-11-25T05:07:28.477Z,13.70
2023-11-25T05:08:31.043Z,10.40
2023-11-25T05:09:33.791Z,8.70
2023-11-25T05:10:36.825Z,10.09
2023-11-25T05:11:39.397Z,10.80
2023-11-25T05:12:41.904Z,9.70
2023-11-25T05:13:44.467Z,9.70
2023-11-25T05:14:47.052Z,11.10
2023-11-25T05:15:49.560Z,11.00
2023-11-25T05:16:52.792Z,9.45
2023-11-25T05:17:55.625Z,12.27
2023-11-25T05:18:58.447Z,15.18
2023-11-25T05:20:01.001Z,16.10
2023-11-25T05:21:03.644Z,17.30
2023-11-25T05:22:06.133Z,16.00
2023-11-25T05:23:08.708Z,18.60
2023-11-25T05:24:11.294Z,21.60
2023-11-25T05:25:13.852Z,20.10
2023-11-25T05:26:17.223Z,21.00
2023-11-25T05:27:19.789Z,20.50
2023-11-25T05:28:22.370Z,21.80
2023-11-25T05:29:24.919Z,25.70
2023-11-25T05:30:27.590Z,22.70
2023-11-25T05:31:30.155Z,21.80
2023-11-25T05:32:32.843Z,22.90
2023-11-25T05:33:35.391Z,19.30
2023-11-25T05:34:38.141Z,22.70
2023-11-25T05:35:40.835Z,21.00
2023-11-25T05:36:43.598Z,20.91
2023-11-25T05:37:46.467Z,17.90
2023-11-25T05:38:49.334Z,20.55
2023-11-25T05:39:51.920Z,21.80
2023-11-25T05:40:54.959Z,24.70
2023-11-25T05:41:57.777Z,26.60
2023-11-25T05:43:00.268Z,21.80
2023-11-25T05:44:02.801Z,23.30
2023-11-25T05:45:09.493Z,27.00
2023-11-25T05:47:33.204Z,27.20
2023-11-25T05:48:35.802Z,24.50
2023-11-25T05:49:41.051Z,22.00
2023-11-25T05:50:43.800Z,22.00
2023-11-25T05:51:46.371Z,26.50
2023-11-25T05:52:49.341Z,22.90
2023-11-25T05:53:52.040Z,21.27
2023-11-25T05:54:54.584Z,20.80
2023-11-25T05:55:57.245Z,21.70
2023-11-25T05:57:00.341Z,20.90
2023-11-25T05:58:03.056Z,25.50
2023-11-25T05:59:05.569Z,26.40
2023-11-25T06:00:10.459Z,28.90
2023-11-25T06:01:14.409Z,28.30
2023-11-25T06:02:16.984Z,25.50
2023-11-25T06:03:19.670Z,23.70
2023-11-25T06:04:22.489Z,29.90
2023-11-25T06:05:25.200Z,32.09
2023-11-25T06:06:28.153Z,33.64
2023-11-25T06:07:30.870Z,29.30
2023-11-25T06:08:33.391Z,24.70
2023-11-25T06:09:36.150Z,34.90
2023-11-25T06:10:39.888Z,37.20
2023-11-25T06:11:42.413Z,21.30
2023-11-25T06:12:45.251Z,34.00
2023-11-25T06:13:48.231Z,35.10
2023-11-25T06:14:50.846Z,42.80
2023-11-25T06:15:53.405Z,51.70
2023-11-25T06:16:56.095Z,53.80
2023-11-25T06:17:58.694Z,46.20
2023-11-25T06:19:01.294Z,44.00
2023-11-25T06:20:04.549Z,40.30
2023-11-25T06:21:07.078Z,43.10
2023-11-25T06:22:09.625Z,41.00
2023-11-25T06:23:12.150Z,38.80
2023-11-25T06:24:16.193Z,40.70
2023-11-25T06:25:18.770Z,40.20
2023-11-25T06:26:21.428Z,41.60
2023-11-25T06:27:23.954Z,39.70
2023-11-25T06:28:27.874Z,36.00
2023-11-25T06:29:30.566Z,35.80
2023-11-25T06:30:33.393Z,32.09
2023-11-25T06:31:35.929Z,30.20
2023-11-25T06:32:38.702Z,32.10
2023-11-25T06:33:41.993Z,32.40
2023-11-25T06:34:44.743Z,30.20
2023-11-25T06:35:47.294Z,30.70
2023-11-25T06:36:50.269Z,27.00
2023-11-25T06:37:52.963Z,32.60
2023-11-25T06:38:55.806Z,30.40
2023-11-25T06:39:58.484Z,30.36
2023-11-25T06:41:01.463Z,29.00
2023-11-25T06:42:04.461Z,36.90
2023-11-25T06:43:07.618Z,37.10
2023-11-25T06:44:10.695Z,35.70
2023-11-25T06:45:13.293Z,31.70
2023-11-25T06:46:16.107Z,31.00
2023-11-25T06:47:18.758Z,30.70
2023-11-25T06:48:21.849Z,29.40
2023-11-25T06:49:24.375Z,25.80
2023-11-25T06:50:27.537Z,28.30
2023-11-25T06:51:30.109Z,27.90
2023-11-25T06:52:32.747Z,32.90
2023-11-25T06:53:35.335Z,24.20
2023-11-25T06:54:37.826Z,30.10
2023-11-25T06:55:40.422Z,30.20
2023-11-25T06:56:43.140Z,27.90
2023-11-25T06:57:45.717Z,29.00
2023-11-25T06:58:48.371Z,27.00
2023-11-25T06:59:51.255Z,22.00
2023-11-25T07:00:54.044Z,25.55
2023-11-25T07:01:56.730Z,29.80
2023-11-25T07:02:59.369Z,28.20
2023-11-25T07:04:05.312Z,29.00
2023-11-25T07:05:08.798Z,29.00
2023-11-25T07:06:12.081Z,25.40
2023-11-25T07:07:14.772Z,23.45
2023-11-25T07:08:17.540Z,21.20
2023-11-25T07:09:20.149Z,20.70
2023-11-25T07:10:23.383Z,17.00
2023-11-25T07:11:25.939Z,20.30
2023-11-25T07:12:28.508Z,22.20
2023-11-25T07:13:31.126Z,19.30
2023-11-25T07:14:33.747Z,20.90
2023-11-25T07:15:36.744Z,19.36
2023-11-25T07:16:39.443Z,20.20
2023-11-25T07:17:42.599Z,19.60
2023-11-25T07:18:45.351Z,21.30
2023-11-25T07:19:47.834Z,20.70
2023-11-25T07:20:52.338Z,20.18
2023-11-25T07:21:55.095Z,18.30
2023-11-25T07:22:57.614Z,19.80
2023-11-25T07:24:00.435Z,16.00
2023-11-25T07:25:03.309Z,13.70
2023-11-25T07:26:07.133Z,20.10
2023-11-25T07:27:09.766Z,17.80
2023-11-25T07:28:12.774Z,18.50
2023-11-25T07:29:15.282Z,18.80
2023-11-25T07:30:18.093Z,17.50
2023-11-25T07:31:24.185Z,18.27
2023-11-25T07:32:26.880Z,18.80
2023-11-25T07:33:29.479Z,19.70
2023-11-25T07:34:32.578Z,13.90
2023-11-25T07:35:36.412Z,15.20
2023-11-25T07:36:39.329Z,17.90
2023-11-25T07:37:41.923Z,15.50
2023-11-25T07:38:44.548Z,18.50
2023-11-25T07:39:47.086Z,17.30
2023-11-25T07:40:50.334Z,18.10
2023-11-25T07:41:53.082Z,21.00
2023-11-25T07:42:55.651Z,19.10
2023-11-25T07:43:58.272Z,21.90
2023-11-25T07:45:00.989Z,18.40
2023-11-25T07:46:03.655Z,17.40
2023-11-25T07:47:06.449Z,20.60
2023-11-25T07:48:09.075Z,19.50
2023-11-25T07:49:11.587Z,20.20
2023-11-25T07:50:14.849Z,22.40
2023-11-25T07:51:17.926Z,20.30
2023-11-25T07:52:20.624Z,24.00
2023-11-25T07:53:23.178Z,23.40
2023-11-25T07:54:25.743Z,26.30
2023-11-25T07:55:28.344Z,26.10
2023-11-25T07:56:31.067Z,25.50
2023-11-25T07:57:33.917Z,29.40
2023-11-25T07:58:36.642Z,24.55
2023-11-25T07:59:39.183Z,23.10
2023-11-25T08:00:41.952Z,24.60
2023-11-25T08:01:45.267Z,20.40
2023-11-25T08:02:48.178Z,23.90
2023-11-25T08:03:50.896Z,25.80
2023-11-25T08:04:53.615Z,27.30
2023-11-25T08:05:56.173Z,22.20
2023-11-25T08:06:58.794Z,22.80
2023-11-25T08:08:01.537Z,21.50
2023-11-25T08:09:04.395Z,19.60
2023-11-25T08:10:08.748Z,20.00
2023-11-25T08:11:11.413Z,21.80
2023-11-25T08:12:13.985Z,21.70
2023-11-25T08:13:16.608Z,22.60
2023-11-25T08:14:19.209Z,19.40
2023-11-25T08:15:21.737Z,22.00
2023-11-25T08:16:24.726Z,17.50
2023-11-25T08:17:27.290Z,20.45
2023-11-25T08:18:30.013Z,18.20
2023-11-25T08:19:32.588Z,4.40
2023-11-25T08:20:35.430Z,17.91
2023-11-25T08:21:38.049Z,24.20
2023-11-25T08:22:40.884Z,32.20
2023-11-25T08:23:44.026Z,36.91
2023-11-25T08:24:46.921Z,13.18
2023-11-25T08:25:49.542Z,26.82
2023-11-25T08:26:53.200Z,25.20
2023-11-25T08:27:55.875Z,25.20
2023-11-25T08:28:59.173Z,22.20
2023-11-25T08:30:01.673Z,22.10
2023-11-25T08:31:04.223Z,23.10
2023-11-25T08:32:07.421Z,23.10
2023-11-25T08:33:10.054Z,20.80
2023-11-25T08:34:12.906Z,21.50
2023-11-25T08:35:15.426Z,18.90
2023-11-25T08:36:18.138Z,17.20
2023-11-25T08:37:20.724Z,19.30
2023-11-25T08:38:23.294Z,18.70
2023-11-25T08:39:25.841Z,15.10
2023-11-25T08:40:28.756Z,17.70
2023-11-25T08:41:31.184Z,16.20
2023-11-25T08:42:33.750Z,19.90
2023-11-25T08:43:40.142Z,19.20
2023-11-25T08:44:42.729Z,30.60
2023-11-25T08:45:45.242Z,31.40
2023-11-25T08:46:48.137Z,28.20
2023-11-25T08:47:50.905Z,26.80
2023-11-25T08:48:53.556Z,25.00
2023-11-25T08:49:56.267Z,22.90
2023-11-25T08:51:00.738Z,21.30
2023-11-25T08:52:04.015Z,23.30
2023-11-25T08:53:06.891Z,25.90
2023-11-25T08:54:11.294Z,24.10
2023-11-25T08:55:13.862Z,26.90
2023-11-25T08:56:16.536Z,36.50
2023-11-25T08:57:19.138Z,25.80
2023-11-25T08:58:22.305Z,23.00
2023-11-25T08:59:24.858Z,22.20
2023-11-25T09:00:27.625Z,22.00
2023-11-25T09:01:32.095Z,21.50
2023-11-25T09:02:34.885Z,22.50
2023-11-25T09:03:37.783Z,21.00
2023-11-25T09:04:40.475Z,22.27
2023-11-25T09:06:55.703Z,27.90
2023-11-25T09:07:58.164Z,21.00
2023-11-25T09:09:00.862Z,35.80
2023-11-25T09:10:04.016Z,42.00
2023-11-25T09:11:06.562Z,36.80
2023-11-25T09:12:09.068Z,24.50
2023-11-25T09:13:11.597Z,20.70
2023-11-25T09:14:14.408Z,26.70
2023-11-25T09:15:16.978Z,24.60
2023-11-25T09:16:19.989Z,24.55
2023-11-25T09:17:22.638Z,23.20
2023-11-25T09:18:25.156Z,18.20
2023-11-25T09:19:27.636Z,26.70
2023-11-25T09:20:30.225Z,24.70
2023-11-25T09:21:33.089Z,25.10
2023-11-25T09:22:35.676Z,23.50
2023-11-25T09:23:38.237Z,28.20
2023-11-25T09:24:40.795Z,19.30
2023-11-25T09:25:43.422Z,25.30
2023-11-25T09:26:46.063Z,23.90
2023-11-25T09:27:48.721Z,27.50
2023-11-25T09:28:52.093Z,27.90
2023-11-25T09:29:55.383Z,26.80
2023-11-25T09:30:58.139Z,22.90
2023-11-25T09:32:01.685Z,25.50
2023-11-25T09:33:04.338Z,25.60
2023-11-25T09:34:06.843Z,27.90
2023-11-25T09:35:10.104Z,31.00
2023-11-25T09:36:13.446Z,23.80
2023-11-25T09:37:16.273Z,28.80
2023-11-25T09:38:18.773Z,28.20
2023-11-25T09:39:21.258Z,33.10
2023-11-25T09:40:26.428Z,27.90
2023-11-25T09:41:29.273Z,25.80
2023-11-25T09:42:32.283Z,26.27
2023-11-25T09:43:35.367Z,31.80
2023-11-25T09:44:40.010Z,26.60
2023-11-25T09:45:42.772Z,25.50
2023-11-25T09:46:48.229Z,23.70
2023-11-25T09:47:50.838Z,23.70
2023-11-25T09:48:53.419Z,23.30
2023-11-25T09:49:55.918Z,23.90
2023-11-25T09:51:00.379Z,22.60
2023-11-25T09:52:03.736Z,19.70
2023-11-25T09:53:16.223Z,22.20
2023-11-25T09:54:21.557Z,15.80
2023-11-25T09:55:24.911Z,22.50
2023-11-25T09:56:28.287Z,21.20
2023-11-25T09:57:30.998Z,21.40
2023-11-25T09:58:37.269Z,23.80
2023-11-25T09:59:40.343Z,7.80
2023-11-25T10:00:43.915Z,21.60
2023-11-25T10:01:46.832Z,19.40
2023-11-25T10:04:02.353Z,30.00
2023-11-25T10:05:06.625Z,20.50
2023-11-25T10:06:09.863Z,20.50
2023-11-25T10:07:12.542Z,26.18
2023-11-25T10:08:15.076Z,28.90
2023-11-25T10:09:17.518Z,24.80
2023-11-25T10:10:20.165Z,26.60
2023-11-25T10:11:22.753Z,25.10
2023-11-25T10:12:25.259Z,24.40
2023-11-25T10:13:35.023Z,29.90
2023-11-25T10:14:44.555Z,26.50
2023-11-25T10:15:47.142Z,29.20
2023-11-25T10:16:50.054Z,25.27
2023-11-25T10:17:52.678Z,23.80
2023-11-25T10:18:55.512Z,23.50
2023-11-25T10:20:10.778Z,24.27
2023-11-25T10:21:13.562Z,33.50
2023-11-25T10:22:16.586Z,24.80
2023-11-25T10:23:22.268Z,22.10
2023-11-25T10:24:24.832Z,19.80
2023-11-25T10:25:27.632Z,20.80
2023-11-25T10:26:30.682Z,22.50
2023-11-25T10:27:33.314Z,24.70
2023-11-25T10:28:35.900Z,26.40
2023-11-25T10:29:38.324Z,24.40
2023-11-25T10:30:41.465Z,25.80
2023-11-25T10:31:44.524Z,24.27
2023-11-25T10:32:47.197Z,21.50
2023-11-25T10:33:53.388Z,20.70
2023-11-25T10:34:56.242Z,20.70
2023-11-25T10:35:59.428Z,23.70
2023-11-25T10:37:05.371Z,20.30
2023-11-25T10:38:07.894Z,18.00
2023-11-25T10:39:10.703Z,19.00
2023-11-25T10:40:14.406Z,21.40
2023-11-25T10:41:16.970Z,18.55
2023-11-25T10:42:19.740Z,21.10
2023-11-25T10:43:23.541Z,19.73
2023-11-25T10:44:28.050Z,23.10
2023-11-25T10:45:31.810Z,26.10
2023-11-25T10:46:38.845Z,26.70
2023-11-25T10:47:42.452Z,23.00
2023-11-25T10:48:46.196Z,20.70
2023-11-25T10:49:49.067Z,21.80
2023-11-25T10:50:51.810Z,24.09
2023-11-25T10:51:54.434Z,20.80
2023-11-25T10:52:57.692Z,24.90
2023-11-25T10:54:00.469Z,24.20
2023-11-25T10:55:03.664Z,18.90
2023-11-25T10:56:07.104Z,17.70
2023-11-25T10:57:10.117Z,15.90
2023-11-25T10:58:13.193Z,18.09
2023-11-25T10:59:17.599Z,17.10
2023-11-25T11:00:20.786Z,15.50
2023-11-25T11:01:24.387Z,15.70
2023-11-25T11:05:19.126Z,16.20
2023-11-25T11:06:24.499Z,16.30
2023-11-25T11:07:27.723Z,18.70
2023-11-25T11:08:35.092Z,18.80
2023-11-25T11:09:38.256Z,18.10
2023-11-25T11:10:55.694Z,20.00
2023-11-25T11:14:52.234Z,24.40
2023-11-25T11:15:58.061Z,21.40
2023-11-25T11:17:21.277Z,22.10
2023-11-25T11:18:26.587Z,23.50
2023-11-25T11:21:58.307Z,18.00
2023-11-25T11:23:00.882Z,16.10
2023-11-25T11:24:04.741Z,15.60
2023-11-25T11:25:19.539Z,16.00
2023-11-25T11:26:48.994Z,14.40
2023-11-25T11:29:13.213Z,37.20
2023-11-25T11:30:20.069Z,30.10
2023-11-25T11:31:43.072Z,45.80
2023-11-25T11:32:46.828Z,34.50
2023-11-25T11:33:49.457Z,29.80
2023-11-25T11:34:52.152Z,24.70
2023-11-25T11:35:54.501Z,17.30
2023-11-25T11:36:57.186Z,16.20
2023-11-25T11:37:59.740Z,14.10
2023-11-25T11:39:02.321Z,14.20
2023-11-25T11:40:07.140Z,12.70
2023-11-25T11:41:13.462Z,12.00
2023-11-25T11:42:26.100Z,12.20
2023-11-25T11:43:28.678Z,13.60
2023-11-25T11:44:34.095Z,18.50
2023-11-25T11:45:36.803Z,15.50
2023-11-25T11:46:41.725Z,14.36
2023-11-25T11:47:46.453Z,15.80
2023-11-25T11:48:49.079Z,11.80
2023-11-25T11:49:54.639Z,13.00
2023-11-25T11:50:57.963Z,16.50
2023-11-25T11:52:04.041Z,11.36
2023-11-25T11:53:12.044Z,13.40
2023-11-25T11:54:24.348Z,21.00
2023-11-25T11:55:38.074Z,21.60
2023-11-25T11:57:08.190Z,12.90
2023-11-25T11:58:15.863Z,11.80
2023-11-25T11:59:18.402Z,9.70
2023-11-25T12:00:21.008Z,12.50
2023-11-25T12:01:23.705Z,16.50
2023-11-25T12:02:33.101Z,13.80
2023-11-25T12:03:39.060Z,11.70
2023-11-25T12:04:44.123Z,11.50
2023-11-25T12:05:46.848Z,9.40
2023-11-25T12:06:49.594Z,9.45
2023-11-25T12:07:52.926Z,11.73
2023-11-25T12:08:55.471Z,15.45
2023-11-25T12:09:58.032Z,21.70
2023-11-25T12:11:00.929Z,29.60
2023-11-25T12:12:03.913Z,26.40
2023-11-25T12:13:06.673Z,24.82
2023-11-25T12:14:10.342Z,22.27
2023-11-25T12:15:12.878Z,16.00
2023-11-25T12:16:15.594Z,17.60
2023-11-25T12:17:18.220Z,23.70
2023-11-25T12:18:21.547Z,21.90
2023-11-25T12:19:24.533Z,20.60
2023-11-25T12:20:27.963Z,13.70
2023-11-25T12:21:30.786Z,11.20
2023-11-25T12:22:33.360Z,10.09
2023-11-25T12:23:44.978Z,11.50
2023-11-25T12:24:43.397Z,10.70
2023-11-25T12:25:46.050Z,9.60
2023-11-25T12:26:49.852Z,12.00
2023-11-25T12:27:58.943Z,20.30
2023-11-25T12:29:01.765Z,21.20
2023-11-25T12:30:05.650Z,16.20
2023-11-25T12:31:09.137Z,15.20
2023-11-25T12:32:11.690Z,21.20
2023-11-25T12:33:14.233Z,30.50
2023-11-25T12:34:16.853Z,40.80
2023-11-25T12:35:19.408Z,32.60
2023-11-25T12:36:21.987Z,28.90
2023-11-25T12:37:24.782Z,31.30
2023-11-25T12:38:27.549Z,40.27
2023-11-25T12:39:30.236Z,50.00
2023-11-25T12:40:34.163Z,46.18
2023-11-25T12:41:36.709Z,60.40
2023-11-25T12:42:39.216Z,58.10
2023-11-25T12:45:02.474Z,145.50
2023-11-25T12:46:12.124Z,113.30
2023-11-25T12:47:14.762Z,89.10
2023-11-25T12:49:30.257Z,93.40
2023-11-25T12:50:34.320Z,73.40
2023-11-25T12:51:43.176Z,77.50
2023-11-25T12:52:46.134Z,58.80
2023-11-25T12:53:55.281Z,48.91
2023-11-25T12:54:57.980Z,34.00
2023-11-25T12:56:00.668Z,30.30
2023-11-25T12:57:03.688Z,23.50
2023-11-25T12:58:13.324Z,34.55
2023-11-25T12:59:26.850Z,34.90
2023-11-25T13:00:29.515Z,35.50
2023-11-25T13:01:34.325Z,25.20
2023-11-25T13:02:40.690Z,22.82
2023-11-25T13:03:43.427Z,14.60
2023-11-25T13:04:46.548Z,17.30
2023-11-25T13:05:50.344Z,17.20
2023-11-25T13:06:53.109Z,20.70
2023-11-25T13:07:55.650Z,19.70
2023-11-25T13:08:58.197Z,26.60
2023-11-25T13:10:00.912Z,35.60
2023-11-25T13:11:05.229Z,32.60
2023-11-25T13:12:08.950Z,23.10
2023-11-25T13:13:11.785Z,23.10
2023-11-25T13:14:14.382Z,26.80
2023-11-25T13:15:16.925Z,20.40
2023-11-25T13:16:19.671Z,16.60
2023-11-25T13:17:22.791Z,19.00
2023-11-25T13:18:26.055Z,33.18
2023-11-25T13:19:28.542Z,34.90
2023-11-25T13:20:31.396Z,33.70
2023-11-25T13:21:33.962Z,30.30
2023-11-25T13:22:36.549Z,21.50
2023-11-25T13:23:39.198Z,29.00
2023-11-25T13:24:45.964Z,33.90
2023-11-25T13:25:49.400Z,29.30
2023-11-25T13:26:52.114Z,31.70
2023-11-25T13:27:54.695Z,27.50
2023-11-25T13:28:57.229Z,16.50
2023-11-25T13:29:59.676Z,19.80
2023-11-25T13:31:02.190Z,27.70
2023-11-25T13:32:05.624Z,24.00
2023-11-25T13:33:09.102Z,22.20
2023-11-25T13:34:11.739Z,23.00
2023-11-25T13:35:14.298Z,22.90
2023-11-25T13:36:17.751Z,25.60
2023-11-25T13:37:20.144Z,26.70
2023-11-25T13:38:22.729Z,27.70
2023-11-25T13:39:25.384Z,25.40
2023-11-25T13:40:28.189Z,28.36
2023-11-25T13:41:30.743Z,23.80
2023-11-25T13:42:33.390Z,23.10
2023-11-25T13:43:36.041Z,22.50
2023-11-25T13:44:38.488Z,28.30
2023-11-25T13:45:41.311Z,28.70
2023-11-25T13:46:44.224Z,29.30
2023-11-25T13:47:46.858Z,33.10
2023-11-25T13:48:49.772Z,30.27
2023-11-25T13:49:52.420Z,30.40
2023-11-25T13:50:55.259Z,29.82
2023-11-25T13:51:58.100Z,27.00
2023-11-25T13:54:10.844Z,36.30
2023-11-25T13:55:13.431Z,29.30
2023-11-25T13:56:16.527Z,29.20
2023-11-25T13:57:19.058Z,29.60
2023-11-25T13:58:21.649Z,26.10
2023-11-25T13:59:24.237Z,29.60
2023-11-25T14:00:27.963Z,31.50
2023-11-25T14:01:31.009Z,38.90
2023-11-25T14:02:33.830Z,37.30
2023-11-25T14:03:36.585Z,37.60
2023-11-25T14:04:39.728Z,35.60